Time;durP1;ratioP1;P1;durP2;ratioP2;P2;SDS_P1;SDS_P2;PMS_P1;PMS_P2;Temp;Humidity;BMP_temperature;BMP_pressure;BME280_temperature;BME280_humidity;BME280_pressure;Samples;Min_cycle;Max_cycle;Signal;HPM_P1;HPM_P2
2021/01/31 00:00:35;;;;;;;11.13;8.70;;;3.80;99.90;;;;;;5033362;28;20195;-67
2021/01/31 00:03:03;;;;;;;12.40;9.50;;;3.80;99.90;;;;;;5033358;28;20203;-64
2021/01/31 00:05:29;;;;;;;12.57;9.47;;;3.70;99.90;;;;;;5033183;28;20421;-64
2021/01/31 00:07:55;;;;;;;13.43;9.63;;;3.70;99.90;;;;;;5033461;28;20414;-65
2021/01/31 00:10:27;;;;;;;13.47;10.23;;;3.70;99.90;;;;;;5033241;28;20210;-67
2021/01/31 00:12:52;;;;;;;13.07;10.27;;;3.70;99.90;;;;;;5033036;28;20464;-66
2021/01/31 00:15:21;;;;;;;11.67;9.53;;;3.70;99.90;;;;;;5033201;28;20418;-65
2021/01/31 00:17:47;;;;;;;12.20;9.87;;;3.70;99.90;;;;;;5033301;28;20684;-66
2021/01/31 00:20:15;;;;;;;13.90;10.73;;;3.70;99.90;;;;;;4997897;28;20432;-66
2021/01/31 00:22:41;;;;;;;15.73;11.23;;;3.80;99.90;;;;;;5032876;28;20211;-65
2021/01/31 00:25:07;;;;;;;14.80;11.60;;;3.70;99.90;;;;;;5032983;28;20845;-65
2021/01/31 00:27:32;;;;;;;13.70;10.30;;;3.70;99.90;;;;;;5033104;28;20626;-65
2021/01/31 00:29:58;;;;;;;16.43;11.50;;;3.70;99.90;;;;;;5032913;28;20426;-66
2021/01/31 00:32:29;;;;;;;14.57;11.57;;;3.70;99.90;;;;;;5015223;28;20526;-64
2021/01/31 00:34:56;;;;;;;13.40;11.23;;;3.70;99.90;;;;;;5033128;28;20187;-67
2021/01/31 00:37:23;;;;;;;16.30;11.63;;;3.70;99.90;;;;;;5032743;28;20422;-67
2021/01/31 00:39:50;;;;;;;14.90;11.43;;;3.70;99.90;;;;;;5032938;28;20881;-66
2021/01/31 00:42:18;;;;;;;14.27;10.70;;;3.80;99.90;;;;;;5032650;28;20422;-65
2021/01/31 00:44:46;;;;;;;16.30;11.50;;;3.70;99.90;;;;;;5032805;28;20676;-68
2021/01/31 00:47:20;;;;;;;15.60;11.30;;;3.70;99.90;;;;;;5014537;28;20419;-65
2021/01/31 00:49:47;;;;;;;15.40;11.73;;;3.60;99.90;;;;;;5032656;28;20468;-64
2021/01/31 00:52:13;;;;;;;15.53;12.50;;;3.60;99.90;;;;;;5032327;28;20454;-67
2021/01/31 00:54:39;;;;;;;16.60;12.00;;;3.60;99.90;;;;;;5032662;28;20433;-65
2021/01/31 00:57:05;;;;;;;18.07;12.43;;;3.70;99.90;;;;;;5032431;28;21101;-66
2021/01/31 00:59:31;;;;;;;15.20;12.13;;;3.60;99.90;;;;;;5032409;28;20172;-68
2021/01/31 01:01:57;;;;;;;14.57;11.53;;;3.60;99.90;;;;;;5032631;28;20476;-65
2021/01/31 01:04:23;;;;;;;16.13;12.77;;;3.50;99.90;;;;;;5032146;28;20430;-68
2021/01/31 01:06:49;;;;;;;16.37;11.97;;;3.60;99.90;;;;;;5032254;28;20226;-67
2021/01/31 01:09:15;;;;;;;16.20;13.20;;;3.50;99.90;;;;;;5032179;28;20493;-64
2021/01/31 01:11:42;;;;;;;16.17;12.10;;;3.60;99.90;;;;;;5032088;28;20207;-64
2021/01/31 01:14:08;;;;;;;15.43;12.13;;;3.60;99.90;;;;;;5013813;28;21992;-66
2021/01/31 01:16:33;;;;;;;17.23;12.73;;;3.70;99.90;;;;;;5032114;28;20834;-67
2021/01/31 01:18:59;;;;;;;17.27;12.53;;;3.60;99.90;;;;;;5013593;28;20179;-68
2021/01/31 01:21:25;;;;;;;16.03;12.30;;;3.60;99.90;;;;;;5031846;28;20566;-67
2021/01/31 01:23:51;;;;;;;16.73;12.57;;;3.60;99.90;;;;;;5031967;28;20175;-68
2021/01/31 01:26:16;;;;;;;17.17;12.67;;;3.70;99.90;;;;;;5032082;28;20430;-65
2021/01/31 01:28:42;;;;;;;17.00;12.43;;;3.70;99.90;;;;;;5031976;28;20183;-68
2021/01/31 01:31:08;;;;;;;16.17;12.47;;;3.70;99.90;;;;;;5031753;28;20179;-65
2021/01/31 01:33:33;;;;;;;14.77;11.40;;;3.70;99.90;;;;;;5031643;28;20238;-67
2021/01/31 01:35:59;;;;;;;16.30;11.87;;;3.60;99.90;;;;;;5031904;28;20203;-67
2021/01/31 01:38:25;;;;;;;16.90;11.97;;;3.60;99.90;;;;;;5031670;28;20475;-66
2021/01/31 01:40:54;;;;;;;16.17;12.03;;;3.70;99.90;;;;;;5031821;28;20410;-66
2021/01/31 01:43:20;;;;;;;16.60;12.10;;;3.70;99.90;;;;;;5031417;28;20337;-66
2021/01/31 01:46:12;;;;;;;15.70;12.83;;;3.70;99.90;;;;;;5031609;28;20417;-68
2021/01/31 01:48:38;;;;;;;15.87;11.57;;;3.70;99.90;;;;;;5031003;28;20418;-65
2021/01/31 01:51:03;;;;;;;17.03;12.50;;;3.70;99.90;;;;;;5031530;28;20411;-66
2021/01/31 01:53:29;;;;;;;15.97;12.23;;;3.70;99.90;;;;;;5031425;28;20223;-67
2021/01/31 01:56:03;;;;;;;15.07;12.43;;;3.60;99.90;;;;;;5031489;28;20176;-64
2021/01/31 01:58:29;;;;;;;17.13;12.07;;;3.60;99.90;;;;;;5031367;28;20175;-67
2021/01/31 02:00:56;;;;;;;15.97;11.97;;;3.60;99.90;;;;;;5031183;28;20509;-64
2021/01/31 02:03:34;;;;;;;15.23;11.57;;;3.50;99.90;;;;;;5031920;28;20549;-65
2021/01/31 02:06:16;;;;;;;14.67;11.33;;;3.60;99.90;;;;;;5031370;28;20418;-67
2021/01/31 02:08:42;;;;;;;16.23;11.93;;;3.60;99.90;;;;;;5030968;28;20414;-67
2021/01/31 02:11:09;;;;;;;13.53;10.97;;;3.60;99.90;;;;;;5031109;28;20414;-65
2021/01/31 02:13:39;;;;;;;15.40;11.60;;;3.70;99.90;;;;;;5030880;28;20458;-64
2021/01/31 02:16:10;;;;;;;15.23;12.37;;;3.60;99.90;;;;;;5031139;28;20423;-66
2021/01/31 02:18:50;;;;;;;14.67;11.67;;;3.60;99.90;;;;;;5030873;28;20768;-64
2021/01/31 02:21:50;;;;;;;13.40;10.00;;;3.50;99.90;;;;;;5030981;28;20422;-65
2021/01/31 02:24:34;;;;;;;17.30;12.10;;;3.50;99.90;;;;;;5030787;28;20441;-66
2021/01/31 02:27:26;;;;;;;15.70;11.70;;;3.60;99.90;;;;;;5030761;28;20442;-66
2021/01/31 02:30:11;;;;;;;15.50;11.70;;;3.50;99.90;;;;;;5030955;28;20410;-67
2021/01/31 02:32:56;;;;;;;15.23;11.33;;;3.50;99.90;;;;;;5030917;28;20488;-65
2021/01/31 02:35:24;;;;;;;16.17;11.90;;;3.50;99.90;;;;;;5030592;28;20445;-66
2021/01/31 02:38:07;;;;;;;14.23;10.87;;;3.50;99.90;;;;;;5030692;28;20411;-67
2021/01/31 02:40:53;;;;;;;14.10;10.80;;;3.50;99.90;;;;;;5030926;28;20754;-64
2021/01/31 02:43:40;;;;;;;16.97;11.37;;;3.40;99.90;;;;;;5030545;28;20414;-66
2021/01/31 02:46:25;;;;;;;16.93;11.37;;;3.40;99.90;;;;;;5030840;28;20469;-66
2021/01/31 02:49:24;;;;;;;15.10;11.67;;;3.40;99.90;;;;;;5030344;28;20429;-65
2021/01/31 02:51:49;;;;;;;16.40;12.47;;;3.40;99.90;;;;;;5030725;28;20987;-67
2021/01/31 02:54:22;;;;;;;16.40;12.30;;;3.40;99.90;;;;;;5030337;28;20497;-64
2021/01/31 02:56:57;;;;;;;16.10;12.37;;;3.40;99.90;;;;;;5030339;28;20195;-65
2021/01/31 02:59:36;;;;;;;16.97;12.47;;;3.30;99.90;;;;;;5031251;28;20412;-67
2021/01/31 03:02:05;;;;;;;18.83;13.73;;;3.30;99.90;;;;;;5035424;28;20422;-66
2021/01/31 03:04:39;;;;;;;16.53;13.00;;;3.30;99.90;;;;;;5014818;28;20473;-64
2021/01/31 03:07:24;;;;;;;17.77;13.40;;;3.30;99.90;;;;;;5014818;28;20465;-65
2021/01/31 03:10:10;;;;;;;19.33;12.97;;;3.30;99.90;;;;;;5014684;28;20403;-64
2021/01/31 03:12:53;;;;;;;17.57;13.03;;;3.30;99.90;;;;;;5014691;28;20639;-65
2021/01/31 03:15:24;;;;;;;19.20;12.67;;;3.30;99.90;;;;;;5014588;28;20980;-64
2021/01/31 03:18:09;;;;;;;18.87;13.43;;;3.40;99.90;;;;;;5014849;28;20454;-68
2021/01/31 03:20:39;;;;;;;18.47;13.47;;;3.30;99.90;;;;;;5014668;28;20758;-64
2021/01/31 03:23:18;;;;;;;18.00;12.80;;;3.40;99.90;;;;;;5014465;28;20546;-65
2021/01/31 03:26:07;;;;;;;18.70;14.53;;;3.40;99.90;;;;;;5014424;28;20430;-65
2021/01/31 03:28:33;;;;;;;18.57;12.87;;;3.30;99.90;;;;;;5014259;28;20419;-64
2021/01/31 03:31:01;;;;;;;18.63;13.43;;;3.30;99.90;;;;;;5014221;28;20429;-66
2021/01/31 03:33:33;;;;;;;17.57;13.40;;;3.30;99.90;;;;;;5014078;28;20537;-68
2021/01/31 03:35:59;;;;;;;17.53;12.80;;;3.30;99.90;;;;;;5014107;28;20974;-65
2021/01/31 03:38:36;;;;;;;18.67;13.17;;;3.30;99.90;;;;;;5014147;28;20462;-66
2021/01/31 03:41:06;;;;;;;18.33;13.73;;;3.20;99.90;;;;;;5013900;28;20568;-64
2021/01/31 03:43:32;;;;;;;19.20;13.30;;;3.30;99.90;;;;;;5013873;28;20423;-63
2021/01/31 03:46:26;;;;;;;18.43;12.83;;;3.20;99.90;;;;;;5013895;28;20474;-66
2021/01/31 03:48:59;;;;;;;18.63;13.90;;;3.20;99.90;;;;;;5003525;28;20193;-67
2021/01/31 03:51:26;;;;;;;19.53;14.23;;;3.20;99.90;;;;;;5013642;28;20414;-67
2021/01/31 03:53:53;;;;;;;19.17;13.60;;;3.10;99.90;;;;;;5014113;28;20411;-66
2021/01/31 03:56:54;;;;;;;19.37;14.17;;;3.20;99.90;;;;;;5013744;28;20427;-65
2021/01/31 03:59:27;;;;;;;20.37;14.23;;;3.30;99.90;;;;;;4990292;28;20435;-68
2021/01/31 04:01:55;;;;;;;18.97;13.90;;;3.20;99.90;;;;;;5013694;28;20925;-67
2021/01/31 04:04:49;;;;;;;20.30;14.93;;;3.20;99.90;;;;;;5033030;28;20853;-66
2021/01/31 04:07:25;;;;;;;19.67;14.30;;;3.20;99.90;;;;;;5030804;28;20426;-66
2021/01/31 04:09:51;;;;;;;19.47;13.57;;;3.20;99.90;;;;;;5032877;28;20429;-67
2021/01/31 04:12:22;;;;;;;21.33;15.27;;;3.20;99.90;;;;;;5032953;28;20537;-66
2021/01/31 04:14:56;;;;;;;17.30;13.70;;;3.20;99.90;;;;;;5033570;28;20533;-67
2021/01/31 04:17:22;;;;;;;19.63;14.63;;;3.30;99.90;;;;;;5032873;28;20924;-65
2021/01/31 04:19:48;;;;;;;24.03;15.17;;;3.20;99.90;;;;;;5033059;28;20501;-65
2021/01/31 04:22:13;;;;;;;20.23;14.73;;;3.30;99.90;;;;;;5033083;28;20752;-64
2021/01/31 04:24:39;;;;;;;20.03;14.40;;;3.30;99.90;;;;;;5033019;28;20184;-66
2021/01/31 04:27:05;;;;;;;21.53;14.63;;;3.30;99.90;;;;;;5033391;28;20715;-64
2021/01/31 04:29:32;;;;;;;23.40;15.47;;;3.20;99.90;;;;;;5032842;28;20202;-65
2021/01/31 04:31:57;;;;;;;18.20;12.67;;;3.20;99.90;;;;;;5032760;28;20646;-65
2021/01/31 04:34:23;;;;;;;21.23;13.87;;;3.20;99.90;;;;;;5033050;28;20415;-67
2021/01/31 04:36:49;;;;;;;20.73;14.27;;;3.20;99.90;;;;;;5032658;28;20171;-63
2021/01/31 04:39:14;;;;;;;19.47;13.73;;;3.20;99.90;;;;;;5032826;28;20544;-63
2021/01/31 04:41:42;;;;;;;22.57;14.33;;;3.10;99.90;;;;;;5032650;28;20686;-65
2021/01/31 04:44:12;;;;;;;20.67;14.77;;;3.10;99.90;;;;;;5032878;28;20327;-64
2021/01/31 04:46:55;;;;;;;19.17;14.03;;;3.00;99.90;;;;;;5032426;28;20427;-67
2021/01/31 04:49:35;;;;;;;20.67;13.60;;;3.10;99.90;;;;;;5032608;28;20480;-64
2021/01/31 04:52:20;;;;;;;22.30;14.17;;;3.00;99.90;;;;;;5032524;28;20776;-64
2021/01/31 04:55:10;;;;;;;20.73;14.50;;;3.00;99.90;;;;;;5032475;28;20441;-63
2021/01/31 04:57:41;;;;;;;19.47;13.13;;;3.10;99.90;;;;;;5032488;28;21143;-64
2021/01/31 05:00:19;;;;;;;20.77;13.93;;;3.10;99.90;;;;;;5032272;28;20469;-69
2021/01/31 05:02:50;;;;;;;19.40;13.90;;;3.10;99.90;;;;;;5033330;28;20986;-65
2021/01/31 05:05:41;;;;;;;19.37;13.90;;;3.10;99.90;;;;;;5032206;28;20418;-67
2021/01/31 05:08:19;;;;;;;21.57;15.60;;;3.10;99.90;;;;;;5032210;28;20771;-66
2021/01/31 05:10:46;;;;;;;23.60;14.93;;;3.20;99.90;;;;;;5032345;28;20438;-64
2021/01/31 05:13:26;;;;;;;20.50;14.80;;;3.20;99.90;;;;;;5032108;28;20457;-67
2021/01/31 05:16:10;;;;;;;21.87;15.30;;;3.30;99.90;;;;;;5031937;28;20415;-65
2021/01/31 05:18:39;;;;;;;22.17;15.23;;;3.30;99.90;;;;;;5032149;28;20439;-67
2021/01/31 05:21:07;;;;;;;21.17;14.00;;;3.30;99.90;;;;;;5031891;28;20414;-67
2021/01/31 05:23:38;;;;;;;21.67;14.23;;;3.30;99.90;;;;;;5031048;28;20414;-65
2021/01/31 05:26:05;;;;;;;19.57;14.77;;;3.20;99.90;;;;;;5032077;28;20414;-64
2021/01/31 05:28:33;;;;;;;21.33;14.93;;;3.30;99.90;;;;;;5031497;28;20743;-64
2021/01/31 05:30:58;;;;;;;21.73;14.87;;;3.30;99.90;;;;;;5031823;28;20418;-63
2021/01/31 05:33:24;;;;;;;18.83;12.67;;;3.30;99.90;;;;;;5013785;28;20971;-65
2021/01/31 05:36:13;;;;;;;22.17;14.57;;;3.30;99.90;;;;;;5031517;28;20171;-67
2021/01/31 05:38:42;;;;;;;19.70;14.47;;;3.30;99.90;;;;;;5013667;28;20186;-65
2021/01/31 05:41:40;;;;;;;18.80;13.70;;;3.30;99.90;;;;;;5031528;28;20976;-67
2021/01/31 05:44:14;;;;;;;20.77;13.97;;;3.20;99.90;;;;;;5031466;28;20493;-66
2021/01/31 05:46:46;;;;;;;20.40;14.47;;;3.20;99.90;;;;;;5031482;28;20508;-65
2021/01/31 05:49:34;;;;;;;21.43;14.20;;;3.20;99.90;;;;;;5031406;28;20894;-63
2021/01/31 05:52:00;;;;;;;20.70;13.87;;;3.10;99.90;;;;;;5031104;28;20445;-67
2021/01/31 05:54:35;;;;;;;19.97;14.13;;;3.10;99.90;;;;;;5031384;28;20765;-68
2021/01/31 05:57:01;;;;;;;21.33;15.23;;;3.10;99.90;;;;;;5031245;28;20916;-67
2021/01/31 05:59:48;;;;;;;21.27;13.90;;;3.20;99.90;;;;;;5031263;28;20454;-65
2021/01/31 06:02:31;;;;;;;20.47;14.53;;;3.20;99.90;;;;;;5030932;28;20493;-64
2021/01/31 06:05:19;;;;;;;20.03;13.80;;;3.20;99.90;;;;;;5030935;28;20497;-65
2021/01/31 06:07:46;;;;;;;21.77;13.97;;;3.20;99.90;;;;;;5031378;28;20929;-66
2021/01/31 06:10:18;;;;;;;21.87;15.03;;;3.10;99.90;;;;;;5030705;28;20497;-67
2021/01/31 06:12:47;;;;;;;22.03;14.93;;;3.20;99.90;;;;;;5031030;28;20463;-64
2021/01/31 06:15:16;;;;;;;20.50;14.30;;;3.10;99.90;;;;;;5030872;28;20410;-65
2021/01/31 06:17:42;;;;;;;19.60;13.83;;;3.10;99.90;;;;;;5030996;28;20415;-66
2021/01/31 06:20:16;;;;;;;21.60;14.60;;;3.00;99.90;;;;;;5030652;28;20503;-66
2021/01/31 06:22:45;;;;;;;21.23;14.87;;;3.10;99.90;;;;;;5030761;28;20437;-67
2021/01/31 06:25:32;;;;;;;21.47;14.53;;;3.10;99.90;;;;;;5030775;28;21547;-68
2021/01/31 06:28:23;;;;;;;19.37;14.47;;;3.10;99.90;;;;;;5030938;28;20438;-65
2021/01/31 06:31:03;;;;;;;19.53;14.30;;;3.10;99.90;;;;;;5050937;28;20472;-63
2021/01/31 06:33:29;;;;;;;20.83;14.90;;;3.10;99.90;;;;;;5050162;28;20523;-66
2021/01/31 06:36:14;;;;;;;24.90;15.53;;;3.10;99.90;;;;;;5032949;28;20426;-64
2021/01/31 06:39:22;;;;;;;19.47;13.90;;;3.10;99.90;;;;;;5050478;28;20183;-67
2021/01/31 06:41:54;;;;;;;21.93;15.27;;;3.10;99.90;;;;;;5015870;28;20593;-67
2021/01/31 06:44:41;;;;;;;18.83;13.47;;;3.10;99.90;;;;;;5030732;28;20410;-69
2021/01/31 06:47:26;;;;;;;20.83;14.03;;;3.20;99.90;;;;;;5030582;28;20469;-67
2021/01/31 06:50:12;;;;;;;21.13;14.17;;;3.20;99.90;;;;;;5030389;28;20415;-67
2021/01/31 06:53:06;;;;;;;18.57;13.97;;;3.20;99.90;;;;;;5029397;28;20496;-67
2021/01/31 06:56:19;;;;;;;20.23;13.73;;;3.20;99.90;;;;;;5023431;28;20543;-64
2021/01/31 06:58:51;;;;;;;20.17;13.87;;;3.20;99.90;;;;;;4959581;28;20411;-65
2021/01/31 07:01:20;;;;;;;18.97;13.93;;;3.20;99.90;;;;;;5030750;28;20411;-67
2021/01/31 07:03:54;;;;;;;17.87;12.70;;;3.20;99.90;;;;;;5030636;28;20474;-67
2021/01/31 07:06:34;;;;;;;22.03;15.00;;;3.00;99.90;;;;;;5030719;28;20429;-64
2021/01/31 07:09:32;;;;;;;20.63;14.53;;;3.00;99.90;;;;;;5030334;28;20418;-66
2021/01/31 07:12:18;;;;;;;19.77;13.50;;;3.00;99.90;;;;;;5029672;28;20466;-65
2021/01/31 07:15:14;;;;;;;19.00;13.83;;;3.10;99.90;;;;;;5030416;28;20438;-64
2021/01/31 07:17:55;;;;;;;20.00;13.90;;;3.10;99.90;;;;;;5027467;28;20414;-65
2021/01/31 07:20:31;;;;;;;19.33;13.30;;;3.00;99.90;;;;;;5029845;28;20422;-65
2021/01/31 07:23:20;;;;;;;19.50;14.10;;;3.00;99.90;;;;;;5030053;28;20810;-64
2021/01/31 07:26:02;;;;;;;19.13;14.03;;;2.90;99.90;;;;;;5030508;28;20932;-63
2021/01/31 07:28:29;;;;;;;22.20;14.20;;;2.90;99.90;;;;;;5030506;28;20417;-65
2021/01/31 07:31:04;;;;;;;19.70;14.20;;;3.00;99.90;;;;;;5030348;28;20817;-65
2021/01/31 07:34:02;;;;;;;19.07;13.93;;;3.00;99.90;;;;;;5030230;28;20450;-64
2021/01/31 07:37:06;;;;;;;19.97;14.10;;;3.10;99.90;;;;;;5014279;28;20419;-63
2021/01/31 07:39:55;;;;;;;19.73;14.07;;;3.20;99.90;;;;;;4969209;28;20417;-63
2021/01/31 07:42:22;;;;;;;20.93;14.50;;;3.20;99.90;;;;;;5028797;28;20414;-64
2021/01/31 07:44:53;;;;;;;20.57;13.53;;;3.20;99.90;;;;;;5030127;28;20470;-63
2021/01/31 07:47:23;;;;;;;21.20;14.77;;;3.10;99.90;;;;;;5033792;28;20410;-64
2021/01/31 07:50:02;;;;;;;18.40;13.07;;;3.20;99.90;;;;;;5032766;28;20440;-66
2021/01/31 07:52:42;;;;;;;23.03;14.67;;;3.30;99.90;;;;;;5033219;28;20465;-65
2021/01/31 07:55:29;;;;;;;18.97;14.07;;;3.30;99.90;;;;;;5033786;28;20501;-64
2021/01/31 07:58:01;;;;;;;18.63;13.03;;;3.30;99.90;;;;;;5033218;28;20758;-66
2021/01/31 08:00:41;;;;;;;18.93;12.97;;;3.30;99.90;;;;;;5033578;28;20434;-64
2021/01/31 08:03:34;;;;;;;19.17;13.23;;;3.40;99.90;;;;;;5034330;28;20452;-65
2021/01/31 08:06:07;;;;;;;19.33;13.57;;;3.40;99.90;;;;;;5033389;28;20777;-66
2021/01/31 08:08:43;;;;;;;18.73;12.93;;;3.40;99.90;;;;;;5033441;28;20430;-65
2021/01/31 08:11:18;;;;;;;17.30;13.33;;;3.30;99.90;;;;;;5033608;28;20422;-66
2021/01/31 08:13:50;;;;;;;20.73;14.40;;;3.20;99.90;;;;;;5032735;28;20462;-62
2021/01/31 08:16:43;;;;;;;19.23;12.97;;;3.10;99.90;;;;;;5033093;28;20993;-66
2021/01/31 08:19:09;;;;;;;19.63;13.83;;;3.10;99.90;;;;;;5033314;28;20411;-66
2021/01/31 08:21:46;;;;;;;17.77;13.33;;;3.20;99.90;;;;;;5033208;28;20493;-66
2021/01/31 08:24:12;;;;;;;20.77;13.80;;;3.20;99.90;;;;;;5032728;28;20168;-65
2021/01/31 08:26:44;;;;;;;18.10;13.37;;;3.30;99.90;;;;;;5032891;28;20489;-63
2021/01/31 08:29:25;;;;;;;18.97;13.17;;;3.30;99.90;;;;;;5033050;28;20168;-63
2021/01/31 08:32:17;;;;;;;17.47;13.37;;;3.30;99.90;;;;;;5032953;28;20441;-65
2021/01/31 08:35:09;;;;;;;19.00;13.40;;;3.40;99.90;;;;;;5028723;28;20422;-65
2021/01/31 08:37:34;;;;;;;18.07;13.57;;;3.40;99.90;;;;;;5032883;28;20414;-66
2021/01/31 08:40:12;;;;;;;15.43;12.20;;;3.40;99.90;;;;;;5033060;28;20406;-65
2021/01/31 08:42:51;;;;;;;18.47;13.40;;;3.30;99.90;;;;;;5032920;28;20186;-63
2021/01/31 08:45:16;;;;;;;18.83;13.17;;;3.40;99.90;;;;;;5032493;28;20434;-63
2021/01/31 08:47:42;;;;;;;17.10;13.43;;;3.40;99.90;;;;;;5032754;28;20410;-65
2021/01/31 08:50:08;;;;;;;18.50;13.07;;;3.40;99.90;;;;;;5032735;28;20186;-63
2021/01/31 08:52:34;;;;;;;18.50;13.30;;;3.40;99.90;;;;;;5032484;28;20237;-65
2021/01/31 08:55:02;;;;;;;19.77;13.13;;;3.50;99.90;;;;;;5032412;28;20438;-63
2021/01/31 08:57:29;;;;;;;18.40;13.10;;;3.50;99.90;;;;;;5032409;28;20574;-66
2021/01/31 08:59:55;;;;;;;17.77;12.87;;;3.40;99.90;;;;;;5032427;28;20549;-64
2021/01/31 09:02:25;;;;;;;16.43;12.80;;;3.50;99.90;;;;;;5032374;28;20430;-66
2021/01/31 09:05:12;;;;;;;18.27;12.17;;;3.60;99.90;;;;;;5050782;28;20459;-64
2021/01/31 09:07:40;;;;;;;15.67;11.87;;;3.60;99.90;;;;;;5033808;28;20431;-63
2021/01/31 09:10:26;;;;;;;15.93;11.57;;;3.50;99.90;;;;;;5026021;28;20758;-64
2021/01/31 09:13:10;;;;;;;17.43;12.63;;;3.50;99.90;;;;;;5034260;28;20469;-64
2021/01/31 09:15:36;;;;;;;17.90;12.63;;;3.60;99.90;;;;;;5049348;28;20414;-67
2021/01/31 09:18:14;;;;;;;16.80;13.07;;;3.70;99.90;;;;;;5039836;28;20483;-65
2021/01/31 09:20:39;;;;;;;17.57;12.93;;;3.70;99.90;;;;;;5040451;28;20230;-66
2021/01/31 09:23:08;;;;;;;18.60;13.17;;;3.70;99.90;;;;;;5047350;28;20425;-64
2021/01/31 09:25:36;;;;;;;17.17;11.83;;;3.80;99.90;;;;;;5040081;28;20175;-66
2021/01/31 09:28:04;;;;;;;16.17;12.47;;;3.90;99.90;;;;;;5037886;28;20421;-64
2021/01/31 09:30:32;;;;;;;15.97;12.23;;;3.90;99.90;;;;;;5046567;28;20449;-64
2021/01/31 09:33:38;;;;;;;16.33;12.07;;;3.90;99.90;;;;;;5046267;28;20564;-64
2021/01/31 09:36:20;;;;;;;16.63;12.30;;;3.90;99.90;;;;;;5030387;28;20452;-65
2021/01/31 09:38:48;;;;;;;16.40;12.47;;;3.90;99.90;;;;;;5040796;28;20778;-65
2021/01/31 09:41:16;;;;;;;16.73;12.83;;;4.00;99.90;;;;;;5031746;28;20423;-64
2021/01/31 09:43:45;;;;;;;14.17;11.33;;;3.90;99.90;;;;;;5031727;28;21000;-64
2021/01/31 09:46:14;;;;;;;17.33;12.37;;;4.00;99.90;;;;;;5031750;28;20430;-64
2021/01/31 09:48:40;;;;;;;18.43;12.37;;;4.00;99.90;;;;;;5046133;28;20413;-66
2021/01/31 09:51:21;;;;;;;18.47;12.67;;;4.10;99.90;;;;;;5045917;28;20446;-64
2021/01/31 09:53:46;;;;;;;15.80;12.17;;;4.10;99.90;;;;;;5048446;28;20457;-64
2021/01/31 09:56:41;;;;;;;16.90;12.13;;;4.10;99.90;;;;;;5049693;28;20511;-66
2021/01/31 09:59:22;;;;;;;15.77;11.53;;;4.10;99.90;;;;;;5066884;28;20424;-66
2021/01/31 10:01:48;;;;;;;16.83;12.17;;;4.10;99.90;;;;;;5056893;28;20409;-63
2021/01/31 10:04:32;;;;;;;15.93;12.27;;;4.00;99.90;;;;;;5044585;28;20460;-65
2021/01/31 10:07:14;;;;;;;14.90;12.13;;;4.00;99.90;;;;;;5041874;28;20410;-67
2021/01/31 10:09:42;;;;;;;14.97;12.00;;;4.00;99.90;;;;;;5037219;28;20414;-65
2021/01/31 10:12:24;;;;;;;17.23;12.33;;;4.10;99.90;;;;;;5042391;28;20504;-66
2021/01/31 10:14:56;;;;;;;17.80;12.87;;;4.10;99.90;;;;;;5033325;28;20468;-65
2021/01/31 10:17:30;;;;;;;17.40;11.97;;;4.10;99.90;;;;;;5051016;28;20453;-65
2021/01/31 10:20:35;;;;;;;16.77;13.10;;;3.90;99.90;;;;;;5038849;28;20424;-65
2021/01/31 10:23:18;;;;;;;18.53;12.53;;;3.90;99.90;;;;;;5034035;28;20907;-64
2021/01/31 10:25:59;;;;;;;15.50;12.20;;;4.00;99.90;;;;;;5046635;28;20428;-65
2021/01/31 10:28:37;;;;;;;15.37;12.03;;;4.10;99.90;;;;;;5038424;28;20426;-65
2021/01/31 10:31:04;;;;;;;16.77;12.30;;;4.10;99.90;;;;;;5031071;28;20414;-63
2021/01/31 10:33:35;;;;;;;16.67;12.57;;;4.10;99.90;;;;;;5035124;28;20462;-65
2021/01/31 10:36:21;;;;;;;17.47;13.07;;;4.20;99.90;;;;;;5046486;28;20410;-63
2021/01/31 10:38:46;;;;;;;16.73;12.87;;;4.10;99.90;;;;;;5035035;28;20407;-64
2021/01/31 10:41:12;;;;;;;18.00;13.60;;;4.10;99.90;;;;;;5048454;28;20772;-65
2021/01/31 10:43:38;;;;;;;16.37;11.97;;;4.20;99.90;;;;;;5037834;28;20180;-64
2021/01/31 10:46:03;;;;;;;18.33;12.37;;;4.10;99.90;;;;;;5031058;28;20179;-63
2021/01/31 10:48:29;;;;;;;16.20;12.50;;;4.00;99.90;;;;;;5037773;28;20622;-66
2021/01/31 10:50:55;;;;;;;17.73;13.13;;;3.90;99.90;;;;;;5029656;28;20187;-64
2021/01/31 10:53:20;;;;;;;18.70;12.93;;;4.00;99.90;;;;;;5030790;28;20207;-64
2021/01/31 10:55:47;;;;;;;16.67;12.43;;;4.00;99.90;;;;;;5030793;28;20183;-65
2021/01/31 10:58:12;;;;;;;14.77;12.30;;;4.00;99.90;;;;;;5040460;28;20263;-65
2021/01/31 11:00:38;;;;;;;16.10;12.07;;;4.10;99.90;;;;;;5046026;28;20848;-66
2021/01/31 11:03:04;;;;;;;18.17;13.60;;;4.10;99.90;;;;;;5031403;28;20257;-64
2021/01/31 11:05:30;;;;;;;16.53;13.20;;;4.10;99.90;;;;;;5014797;28;20184;-65
2021/01/31 11:07:55;;;;;;;18.33;13.17;;;4.10;99.90;;;;;;5023629;28;20912;-65
2021/01/31 11:10:21;;;;;;;19.13;14.37;;;4.10;99.90;;;;;;5030364;28;20183;-65
2021/01/31 11:12:47;;;;;;;19.73;13.30;;;4.30;99.90;;;;;;5026050;28;20247;-65
2021/01/31 11:15:14;;;;;;;20.73;14.00;;;4.20;99.90;;;;;;5014826;28;20184;-65
2021/01/31 11:17:40;;;;;;;17.87;12.93;;;4.30;99.90;;;;;;5016064;28;20192;-63
2021/01/31 11:20:07;;;;;;;18.23;13.63;;;4.30;99.90;;;;;;5030887;28;20617;-66
2021/01/31 11:22:32;;;;;;;17.80;13.67;;;4.40;99.90;;;;;;5034343;28;20195;-66
2021/01/31 11:24:58;;;;;;;16.43;12.87;;;4.40;99.90;;;;;;5034111;28;20422;-67
2021/01/31 11:27:31;;;;;;;15.63;13.10;;;4.40;99.90;;;;;;5019628;28;20538;-66
2021/01/31 11:29:56;;;;;;;16.00;12.33;;;4.40;99.90;;;;;;5023548;28;20180;-65
2021/01/31 11:32:23;;;;;;;16.30;12.73;;;4.40;99.90;;;;;;5018913;28;20853;-65
2021/01/31 11:34:49;;;;;;;17.67;12.20;;;4.40;99.90;;;;;;5030605;28;20184;-66
2021/01/31 11:37:14;;;;;;;17.33;13.60;;;4.40;99.90;;;;;;5017217;28;20430;-64
2021/01/31 11:39:40;;;;;;;16.33;13.17;;;4.40;99.90;;;;;;5026539;28;20180;-65
2021/01/31 11:42:05;;;;;;;21.13;13.23;;;4.40;99.90;;;;;;5031755;28;20242;-63
2021/01/31 11:44:31;;;;;;;16.37;12.70;;;4.50;99.90;;;;;;5033862;28;20187;-64
2021/01/31 11:46:57;;;;;;;17.77;12.87;;;4.60;99.90;;;;;;5033519;28;20593;-64
2021/01/31 11:49:23;;;;;;;15.57;12.10;;;4.60;99.90;;;;;;5027025;28;20184;-65
2021/01/31 11:51:48;;;;;;;18.10;12.67;;;4.50;99.90;;;;;;5014040;28;20222;-65
2021/01/31 11:54:14;;;;;;;16.67;12.63;;;4.50;99.90;;;;;;5014195;28;20565;-63
2021/01/31 11:56:39;;;;;;;18.57;13.87;;;4.50;99.90;;;;;;5013775;28;20189;-65
2021/01/31 11:59:05;;;;;;;17.03;13.23;;;4.40;99.90;;;;;;5025374;28;20175;-63
2021/01/31 12:01:31;;;;;;;17.83;13.13;;;4.40;99.90;;;;;;5033673;28;20179;-64
2021/01/31 12:03:56;;;;;;;16.33;13.50;;;4.40;99.90;;;;;;5022879;28;20298;-65
2021/01/31 12:06:22;;;;;;;17.43;13.23;;;4.40;99.90;;;;;;5033437;28;20640;-64
2021/01/31 12:08:47;;;;;;;16.50;13.17;;;4.40;99.90;;;;;;5015732;28;20190;-65
2021/01/31 12:11:13;;;;;;;18.30;13.80;;;4.30;99.90;;;;;;5032944;28;20184;-61
2021/01/31 12:13:39;;;;;;;17.03;13.13;;;4.20;99.90;;;;;;5033334;28;20208;-64
2021/01/31 12:16:05;;;;;;;17.30;13.40;;;4.10;99.90;;;;;;5033088;28;20175;-64
2021/01/31 12:18:31;;;;;;;19.30;13.93;;;4.10;99.90;;;;;;5033353;28;20175;-64
2021/01/31 12:20:57;;;;;;;17.60;13.50;;;4.10;99.90;;;;;;5033163;28;20765;-63
2021/01/31 12:23:23;;;;;;;19.60;13.80;;;4.20;99.90;;;;;;5033015;28;20219;-64
2021/01/31 12:25:48;;;;;;;18.07;14.23;;;4.20;99.90;;;;;;5033159;28;20513;-64
2021/01/31 12:28:16;;;;;;;14.57;12.27;;;4.10;99.90;;;;;;5032698;28;20184;-64
2021/01/31 12:30:41;;;;;;;17.40;13.10;;;4.10;99.90;;;;;;5033002;28;20254;-65
2021/01/31 12:33:08;;;;;;;17.33;13.43;;;4.10;99.90;;;;;;5032344;28;21075;-63
2021/01/31 12:35:33;;;;;;;19.27;14.07;;;4.10;99.90;;;;;;5032697;28;20635;-64
2021/01/31 12:37:59;;;;;;;18.90;13.97;;;4.20;99.90;;;;;;5014883;28;20469;-63
2021/01/31 12:40:27;;;;;;;19.50;13.93;;;4.20;99.90;;;;;;5032586;28;20560;-61
2021/01/31 12:42:53;;;;;;;19.67;14.60;;;4.10;99.90;;;;;;5032816;28;20183;-64
2021/01/31 12:45:20;;;;;;;20.20;14.93;;;4.10;99.90;;;;;;5032324;28;20418;-64
2021/01/31 12:47:46;;;;;;;21.27;14.60;;;4.10;99.90;;;;;;5032398;28;20259;-61
2021/01/31 12:50:12;;;;;;;19.87;13.90;;;4.10;99.90;;;;;;5032689;28;20498;-63
2021/01/31 12:52:38;;;;;;;20.83;15.07;;;4.10;99.90;;;;;;5032246;28;20286;-64
2021/01/31 12:55:06;;;;;;;20.20;14.30;;;4.10;99.90;;;;;;5032315;28;20518;-62
2021/01/31 12:57:32;;;;;;;19.57;14.40;;;4.10;99.90;;;;;;5031988;28;20180;-63
2021/01/31 12:59:59;;;;;;;19.60;14.00;;;4.10;99.90;;;;;;5032503;28;20430;-65
2021/01/31 13:02:25;;;;;;;19.50;14.07;;;4.10;99.90;;;;;;5032551;28;20191;-64
2021/01/31 13:04:51;;;;;;;17.43;13.50;;;4.10;99.90;;;;;;5032493;28;20461;-64
2021/01/31 13:07:16;;;;;;;19.67;14.17;;;4.10;99.90;;;;;;5032179;28;20426;-62